sensor_id;sensor_type;location;lat;lon;timestamp;P1;durP1;ratioP1;P2;durP2;ratioP2
15258;SDS011;34462;51.368;12.364;2023-05-10T00:01:40;5.47;;;4.23;;
15258;SDS011;34462;51.368;12.364;2023-05-10T00:04:09;5.57;;;4.17;;
15258;SDS011;34462;51.368;12.364;2023-05-10T00:06:37;4.40;;;4.00;;
15258;SDS011;34462;51.368;12.364;2023-05-10T00:09:05;6.03;;;4.47;;
15258;SDS011;34462;51.368;12.364;2023-05-10T00:11:34;5.10;;;4.27;;
15258;SDS011;34462;51.368;12.364;2023-05-10T00:14:03;5.33;;;4.00;;
15258;SDS011;34462;51.368;12.364;2023-05-10T00:16:31;4.80;;;4.30;;
15258;SDS011;34462;51.368;12.364;2023-05-10T00:18:59;5.83;;;4.17;;
15258;SDS011;34462;51.368;12.364;2023-05-10T00:21:27;5.53;;;4.37;;
15258;SDS011;34462;51.368;12.364;2023-05-10T00:23:55;4.57;;;3.87;;
15258;SDS011;34462;51.368;12.364;2023-05-10T00:26:24;6.67;;;4.10;;
15258;SDS011;34462;51.368;12.364;2023-05-10T00:28:53;5.53;;;4.40;;
15258;SDS011;34462;51.368;12.364;2023-05-10T00:31:22;4.83;;;3.97;;
15258;SDS011;34462;51.368;12.364;2023-05-10T00:33:51;5.27;;;4.20;;
15258;SDS011;34462;51.368;12.364;2023-05-10T00:36:19;4.63;;;4.23;;
15258;SDS011;34462;51.368;12.364;2023-05-10T00:38:47;5.10;;;4.60;;
15258;SDS011;34462;51.368;12.364;2023-05-10T00:41:15;5.00;;;3.80;;
15258;SDS011;34462;51.368;12.364;2023-05-10T00:43:43;4.27;;;3.87;;
15258;SDS011;34462;51.368;12.364;2023-05-10T00:46:13;4.93;;;4.43;;
15258;SDS011;34462;51.368;12.364;2023-05-10T00:48:43;6.33;;;4.40;;
15258;SDS011;34462;51.368;12.364;2023-05-10T00:51:12;4.60;;;4.20;;
15258;SDS011;34462;51.368;12.364;2023-05-10T00:53:41;4.93;;;4.43;;
15258;SDS011;34462;51.368;12.364;2023-05-10T00:56:11;4.57;;;4.17;;
15258;SDS011;34462;51.368;12.364;2023-05-10T00:58:39;4.57;;;4.17;;
15258;SDS011;34462;51.368;12.364;2023-05-10T01:01:08;4.50;;;4.10;;
15258;SDS011;34462;51.368;12.364;2023-05-10T01:03:39;5.33;;;4.00;;
15258;SDS011;34462;51.368;12.364;2023-05-10T01:06:07;4.67;;;4.20;;
15258;SDS011;34462;51.368;12.364;2023-05-10T01:08:37;5.00;;;4.20;;
15258;SDS011;34462;51.368;12.364;2023-05-10T01:11:06;5.13;;;4.20;;
15258;SDS011;34462;51.368;12.364;2023-05-10T01:13:35;4.70;;;4.30;;
15258;SDS011;34462;51.368;12.364;2023-05-10T01:16:06;4.97;;;3.93;;
15258;SDS011;34462;51.368;12.364;2023-05-10T01:18:35;4.77;;;4.10;;
15258;SDS011;34462;51.368;12.364;2023-05-10T01:21:12;4.43;;;4.03;;
15258;SDS011;34462;51.368;12.364;2023-05-10T01:24:03;4.33;;;3.93;;
15258;SDS011;34462;51.368;12.364;2023-05-10T01:33:43;5.10;;;4.17;;
15258;SDS011;34462;51.368;12.364;2023-05-10T01:36:20;5.93;;;4.00;;
15258;SDS011;34462;51.368;12.364;2023-05-10T01:38:58;4.57;;;4.17;;
15258;SDS011;34462;51.368;12.364;2023-05-10T01:41:38;4.97;;;4.47;;
15258;SDS011;34462;51.368;12.364;2023-05-10T01:44:16;4.80;;;4.30;;
15258;SDS011;34462;51.368;12.364;2023-05-10T01:46:57;4.73;;;4.27;;
15258;SDS011;34462;51.368;12.364;2023-05-10T01:49:37;6.17;;;4.60;;
15258;SDS011;34462;51.368;12.364;2023-05-10T01:52:12;4.30;;;3.90;;
15258;SDS011;34462;51.368;12.364;2023-05-10T01:54:48;4.40;;;4.00;;
15258;SDS011;34462;51.368;12.364;2023-05-10T01:57:24;6.40;;;4.00;;
15258;SDS011;34462;51.368;12.364;2023-05-10T01:59:58;5.63;;;4.43;;
15258;SDS011;34462;51.368;12.364;2023-05-10T02:02:30;4.67;;;4.20;;
15258;SDS011;34462;51.368;12.364;2023-05-10T02:05:06;5.23;;;4.00;;
15258;SDS011;34462;51.368;12.364;2023-05-10T02:07:36;4.90;;;4.20;;
15258;SDS011;34462;51.368;12.364;2023-05-10T02:10:06;7.13;;;4.50;;
15258;SDS011;34462;51.368;12.364;2023-05-10T02:12:37;4.63;;;4.23;;
15258;SDS011;34462;51.368;12.364;2023-05-10T02:15:10;5.13;;;4.10;;
15258;SDS011;34462;51.368;12.364;2023-05-10T02:17:42;5.47;;;4.63;;
15258;SDS011;34462;51.368;12.364;2023-05-10T02:20:14;5.43;;;4.37;;
15258;SDS011;34462;51.368;12.364;2023-05-10T02:22:46;4.70;;;4.30;;
15258;SDS011;34462;51.368;12.364;2023-05-10T02:25:18;5.50;;;4.17;;
15258;SDS011;34462;51.368;12.364;2023-05-10T02:27:49;4.93;;;4.10;;
15258;SDS011;34462;51.368;12.364;2023-05-10T02:30:21;4.87;;;4.30;;
15258;SDS011;34462;51.368;12.364;2023-05-10T02:32:51;4.67;;;4.27;;
15258;SDS011;34462;51.368;12.364;2023-05-10T02:35:21;4.80;;;4.40;;
15258;SDS011;34462;51.368;12.364;2023-05-10T02:37:53;5.40;;;4.50;;
15258;SDS011;34462;51.368;12.364;2023-05-10T02:40:24;4.80;;;4.30;;
15258;SDS011;34462;51.368;12.364;2023-05-10T02:42:56;4.47;;;4.07;;
15258;SDS011;34462;51.368;12.364;2023-05-10T02:45:29;5.03;;;4.53;;
15258;SDS011;34462;51.368;12.364;2023-05-10T02:47:59;6.27;;;4.70;;
15258;SDS011;34462;51.368;12.364;2023-05-10T02:50:29;4.77;;;4.37;;
15258;SDS011;34462;51.368;12.364;2023-05-10T02:53:01;5.10;;;4.10;;
15258;SDS011;34462;51.368;12.364;2023-05-10T02:55:37;4.90;;;4.40;;
15258;SDS011;34462;51.368;12.364;2023-05-10T02:58:08;5.10;;;4.57;;
15258;SDS011;34462;51.368;12.364;2023-05-10T03:00:36;5.93;;;4.23;;
15258;SDS011;34462;51.368;12.364;2023-05-10T03:03:04;5.47;;;4.20;;
15258;SDS011;34462;51.368;12.364;2023-05-10T03:05:34;6.40;;;4.67;;
15258;SDS011;34462;51.368;12.364;2023-05-10T03:08:02;4.93;;;4.53;;
15258;SDS011;34462;51.368;12.364;2023-05-10T03:10:32;5.87;;;4.27;;
15258;SDS011;34462;51.368;12.364;2023-05-10T03:13:12;5.37;;;4.33;;
15258;SDS011;34462;51.368;12.364;2023-05-10T03:15:57;4.60;;;4.10;;
15258;SDS011;34462;51.368;12.364;2023-05-10T03:18:38;4.80;;;4.30;;
15258;SDS011;34462;51.368;12.364;2023-05-10T03:21:13;7.23;;;4.40;;
15258;SDS011;34462;51.368;12.364;2023-05-10T03:23:46;5.57;;;4.90;;
15258;SDS011;34462;51.368;12.364;2023-05-10T03:26:26;5.33;;;4.83;;
15258;SDS011;34462;51.368;12.364;2023-05-10T03:28:56;4.67;;;4.13;;
15258;SDS011;34462;51.368;12.364;2023-05-10T03:31:26;5.10;;;4.43;;
15258;SDS011;34462;51.368;12.364;2023-05-10T03:33:54;5.23;;;4.70;;
15258;SDS011;34462;51.368;12.364;2023-05-10T03:36:24;5.07;;;4.33;;
15258;SDS011;34462;51.368;12.364;2023-05-10T03:38:52;4.13;;;3.80;;
15258;SDS011;34462;51.368;12.364;2023-05-10T03:41:20;5.10;;;4.10;;
15258;SDS011;34462;51.368;12.364;2023-05-10T03:43:49;4.57;;;4.13;;
15258;SDS011;34462;51.368;12.364;2023-05-10T03:46:17;4.97;;;4.47;;
15258;SDS011;34462;51.368;12.364;2023-05-10T03:48:45;5.87;;;4.80;;
15258;SDS011;34462;51.368;12.364;2023-05-10T03:51:13;4.97;;;4.30;;
15258;SDS011;34462;51.368;12.364;2023-05-10T03:53:43;4.90;;;4.40;;
15258;SDS011;34462;51.368;12.364;2023-05-10T03:56:11;4.90;;;4.13;;
15258;SDS011;34462;51.368;12.364;2023-05-10T03:58:39;4.50;;;4.03;;
15258;SDS011;34462;51.368;12.364;2023-05-10T04:01:07;4.90;;;4.40;;
15258;SDS011;34462;51.368;12.364;2023-05-10T04:03:35;5.70;;;4.60;;
15258;SDS011;34462;51.368;12.364;2023-05-10T04:06:04;4.83;;;4.17;;
15258;SDS011;34462;51.368;12.364;2023-05-10T04:08:35;5.20;;;4.30;;
15258;SDS011;34462;51.368;12.364;2023-05-10T04:11:07;4.90;;;4.40;;
15258;SDS011;34462;51.368;12.364;2023-05-10T04:13:37;4.93;;;4.30;;
15258;SDS011;34462;51.368;12.364;2023-05-10T04:16:06;5.63;;;4.50;;
15258;SDS011;34462;51.368;12.364;2023-05-10T04:18:34;5.00;;;4.50;;
15258;SDS011;34462;51.368;12.364;2023-05-10T04:21:02;5.27;;;4.50;;
15258;SDS011;34462;51.368;12.364;2023-05-10T04:23:31;4.73;;;4.27;;
15258;SDS011;34462;51.368;12.364;2023-05-10T04:25:59;5.23;;;4.43;;
15258;SDS011;34462;51.368;12.364;2023-05-10T04:28:29;5.53;;;4.23;;
15258;SDS011;34462;51.368;12.364;2023-05-10T04:31:01;4.70;;;4.30;;
15258;SDS011;34462;51.368;12.364;2023-05-10T04:33:30;5.03;;;4.13;;
15258;SDS011;34462;51.368;12.364;2023-05-10T04:36:00;4.73;;;4.07;;
15258;SDS011;34462;51.368;12.364;2023-05-10T04:38:28;5.77;;;3.80;;
15258;SDS011;34462;51.368;12.364;2023-05-10T04:41:03;5.43;;;4.20;;
15258;SDS011;34462;51.368;12.364;2023-05-10T04:43:34;4.23;;;3.83;;
15258;SDS011;34462;51.368;12.364;2023-05-10T04:46:03;6.37;;;4.47;;
15258;SDS011;34462;51.368;12.364;2023-05-10T04:48:33;5.73;;;4.57;;
15258;SDS011;34462;51.368;12.364;2023-05-10T04:51:01;5.20;;;4.30;;
15258;SDS011;34462;51.368;12.364;2023-05-10T04:53:31;6.50;;;4.27;;
15258;SDS011;34462;51.368;12.364;2023-05-10T04:55:59;5.68;;;4.00;;
15258;SDS011;34462;51.368;12.364;2023-05-10T04:58:27;6.55;;;3.90;;
15258;SDS011;34462;51.368;12.364;2023-05-10T05:00:57;4.97;;;4.10;;
15258;SDS011;34462;51.368;12.364;2023-05-10T05:03:32;4.60;;;3.78;;
15258;SDS011;34462;51.368;12.364;2023-05-10T05:06:01;4.55;;;4.03;;
15258;SDS011;34462;51.368;12.364;2023-05-10T05:08:29;4.80;;;3.97;;
15258;SDS011;34462;51.368;12.364;2023-05-10T05:10:57;4.40;;;3.83;;
15258;SDS011;34462;51.368;12.364;2023-05-10T05:13:26;5.78;;;4.35;;
15258;SDS011;34462;51.368;12.364;2023-05-10T05:15:54;6.60;;;4.25;;
15258;SDS011;34462;51.368;12.364;2023-05-10T05:18:24;6.57;;;3.95;;
15258;SDS011;34462;51.368;12.364;2023-05-10T05:20:52;5.75;;;3.83;;
15258;SDS011;34462;51.368;12.364;2023-05-10T05:23:20;5.00;;;4.50;;
15258;SDS011;34462;51.368;12.364;2023-05-10T05:25:51;6.13;;;4.32;;
15258;SDS011;34462;51.368;12.364;2023-05-10T05:28:19;5.68;;;4.10;;
15258;SDS011;34462;51.368;12.364;2023-05-10T05:30:48;6.22;;;4.18;;
15258;SDS011;34462;51.368;12.364;2023-05-10T05:33:17;6.82;;;4.80;;
15258;SDS011;34462;51.368;12.364;2023-05-10T05:35:45;4.97;;;4.40;;
15258;SDS011;34462;51.368;12.364;2023-05-10T05:38:16;7.25;;;4.43;;
15258;SDS011;34462;51.368;12.364;2023-05-10T05:40:45;5.13;;;3.97;;
15258;SDS011;34462;51.368;12.364;2023-05-10T05:43:13;6.60;;;4.03;;
15258;SDS011;34462;51.368;12.364;2023-05-10T05:45:41;6.18;;;3.92;;
15258;SDS011;34462;51.368;12.364;2023-05-10T05:48:09;4.75;;;4.13;;
15258;SDS011;34462;51.368;12.364;2023-05-10T05:50:39;6.57;;;4.38;;
15258;SDS011;34462;51.368;12.364;2023-05-10T05:53:07;4.68;;;3.80;;
15258;SDS011;34462;51.368;12.364;2023-05-10T05:55:36;4.40;;;4.00;;
15258;SDS011;34462;51.368;12.364;2023-05-10T05:58:04;6.07;;;4.05;;
15258;SDS011;34462;51.368;12.364;2023-05-10T06:00:32;4.47;;;3.90;;
15258;SDS011;34462;51.368;12.364;2023-05-10T06:03:01;5.43;;;4.28;;
15258;SDS011;34462;51.368;12.364;2023-05-10T06:05:29;3.78;;;3.38;;
15258;SDS011;34462;51.368;12.364;2023-05-10T06:08:00;4.47;;;3.80;;
15258;SDS011;34462;51.368;12.364;2023-05-10T06:10:28;7.18;;;4.60;;
15258;SDS011;34462;51.368;12.364;2023-05-10T06:12:57;5.75;;;3.90;;
15258;SDS011;34462;51.368;12.364;2023-05-10T06:15:25;5.60;;;3.95;;
15258;SDS011;34462;51.368;12.364;2023-05-10T06:17:54;4.20;;;3.80;;
15258;SDS011;34462;51.368;12.364;2023-05-10T06:20:22;5.28;;;3.83;;
15258;SDS011;34462;51.368;12.364;2023-05-10T06:22:50;5.13;;;3.60;;
15258;SDS011;34462;51.368;12.364;2023-05-10T06:25:19;5.03;;;4.00;;
15258;SDS011;34462;51.368;12.364;2023-05-10T06:27:47;6.78;;;3.70;;
15258;SDS011;34462;51.368;12.364;2023-05-10T06:30:19;7.10;;;4.07;;
15258;SDS011;34462;51.368;12.364;2023-05-10T06:32:49;6.00;;;3.78;;
15258;SDS011;34462;51.368;12.364;2023-05-10T06:35:18;4.38;;;3.97;;
15258;SDS011;34462;51.368;12.364;2023-05-10T06:37:46;4.43;;;3.88;;
15258;SDS011;34462;51.368;12.364;2023-05-10T06:40:14;5.05;;;3.65;;
15258;SDS011;34462;51.368;12.364;2023-05-10T06:42:45;4.10;;;3.70;;
15258;SDS011;34462;51.368;12.364;2023-05-10T06:45:14;6.07;;;4.28;;
15258;SDS011;34462;51.368;12.364;2023-05-10T06:47:43;3.85;;;3.55;;
15258;SDS011;34462;51.368;12.364;2023-05-10T06:50:12;7.78;;;3.85;;
15258;SDS011;34462;51.368;12.364;2023-05-10T06:52:40;8.20;;;3.85;;
15258;SDS011;34462;51.368;12.364;2023-05-10T06:55:09;4.28;;;3.80;;
15258;SDS011;34462;51.368;12.364;2023-05-10T06:57:37;5.95;;;3.60;;
15258;SDS011;34462;51.368;12.364;2023-05-10T07:00:07;4.32;;;3.92;;
15258;SDS011;34462;51.368;12.364;2023-05-10T07:02:36;4.47;;;4.07;;
15258;SDS011;34462;51.368;12.364;2023-05-10T07:05:05;4.20;;;3.80;;
15258;SDS011;34462;51.368;12.364;2023-05-10T07:07:33;5.07;;;4.15;;
15258;SDS011;34462;51.368;12.364;2023-05-10T07:10:02;3.97;;;3.47;;
15258;SDS011;34462;51.368;12.364;2023-05-10T07:12:30;5.10;;;3.63;;
15258;SDS011;34462;51.368;12.364;2023-05-10T07:14:59;5.38;;;3.88;;
15258;SDS011;34462;51.368;12.364;2023-05-10T07:17:28;4.30;;;3.63;;
15258;SDS011;34462;51.368;12.364;2023-05-10T07:19:57;4.93;;;4.05;;
15258;SDS011;34462;51.368;12.364;2023-05-10T07:22:25;4.65;;;3.17;;
15258;SDS011;34462;51.368;12.364;2023-05-10T07:24:53;4.20;;;3.80;;
15258;SDS011;34462;51.368;12.364;2023-05-10T07:27:22;3.90;;;3.60;;
15258;SDS011;34462;51.368;12.364;2023-05-10T07:29:50;4.30;;;3.90;;
15258;SDS011;34462;51.368;12.364;2023-05-10T07:32:18;5.95;;;3.60;;
15258;SDS011;34462;51.368;12.364;2023-05-10T07:34:48;3.90;;;3.60;;
15258;SDS011;34462;51.368;12.364;2023-05-10T07:37:16;4.28;;;3.95;;
15258;SDS011;34462;51.368;12.364;2023-05-10T07:39:44;8.43;;;3.72;;
15258;SDS011;34462;51.368;12.364;2023-05-10T07:42:12;4.45;;;4.00;;
15258;SDS011;34462;51.368;12.364;2023-05-10T07:44:40;6.13;;;4.05;;
15258;SDS011;34462;51.368;12.364;2023-05-10T07:47:09;4.35;;;3.70;;
15258;SDS011;34462;51.368;12.364;2023-05-10T07:49:37;6.32;;;3.53;;
15258;SDS011;34462;51.368;12.364;2023-05-10T07:52:07;4.15;;;3.72;;
15258;SDS011;34462;51.368;12.364;2023-05-10T07:54:35;5.53;;;4.38;;
15258;SDS011;34462;51.368;12.364;2023-05-10T07:57:04;4.20;;;3.80;;
15258;SDS011;34462;51.368;12.364;2023-05-10T07:59:32;6.53;;;4.10;;
15258;SDS011;34462;51.368;12.364;2023-05-10T08:02:00;4.47;;;4.10;;
15258;SDS011;34462;51.368;12.364;2023-05-10T08:04:28;4.43;;;4.10;;
15258;SDS011;34462;51.368;12.364;2023-05-10T08:06:57;4.97;;;4.13;;
15258;SDS011;34462;51.368;12.364;2023-05-10T08:09:26;4.78;;;4.38;;
15258;SDS011;34462;51.368;12.364;2023-05-10T08:11:54;6.10;;;3.97;;
15258;SDS011;34462;51.368;12.364;2023-05-10T08:14:22;4.32;;;3.92;;
15258;SDS011;34462;51.368;12.364;2023-05-10T08:16:51;7.28;;;4.40;;
15258;SDS011;34462;51.368;12.364;2023-05-10T08:19:19;4.65;;;3.72;;
15258;SDS011;34462;51.368;12.364;2023-05-10T08:21:47;5.05;;;4.38;;
15258;SDS011;34462;51.368;12.364;2023-05-10T08:24:15;4.95;;;4.45;;
15258;SDS011;34462;51.368;12.364;2023-05-10T08:26:45;4.50;;;3.40;;
15258;SDS011;34462;51.368;12.364;2023-05-10T08:29:13;4.10;;;3.38;;
15258;SDS011;34462;51.368;12.364;2023-05-10T08:31:42;4.63;;;4.22;;
15258;SDS011;34462;51.368;12.364;2023-05-10T08:34:10;4.88;;;4.40;;
15258;SDS011;34462;51.368;12.364;2023-05-10T08:36:39;4.60;;;4.20;;
15258;SDS011;34462;51.368;12.364;2023-05-10T08:39:07;5.18;;;4.13;;
15258;SDS011;34462;51.368;12.364;2023-05-10T08:41:57;4.60;;;4.20;;
15258;SDS011;34462;51.368;12.364;2023-05-10T08:44:31;6.25;;;4.28;;
15258;SDS011;34462;51.368;12.364;2023-05-10T08:47:04;5.85;;;4.07;;
15258;SDS011;34462;51.368;12.364;2023-05-10T08:49:34;4.82;;;4.43;;
15258;SDS011;34462;51.368;12.364;2023-05-10T08:52:04;5.43;;;4.30;;
15258;SDS011;34462;51.368;12.364;2023-05-10T08:54:35;5.25;;;4.35;;
15258;SDS011;34462;51.368;12.364;2023-05-10T08:57:06;6.35;;;4.45;;
15258;SDS011;34462;51.368;12.364;2023-05-10T08:59:35;4.90;;;4.30;;
15258;SDS011;34462;51.368;12.364;2023-05-10T09:02:05;5.55;;;4.30;;
15258;SDS011;34462;51.368;12.364;2023-05-10T09:04:37;5.15;;;4.25;;
15258;SDS011;34462;51.368;12.364;2023-05-10T09:07:06;7.13;;;4.15;;
15258;SDS011;34462;51.368;12.364;2023-05-10T09:09:34;5.20;;;4.70;;
15258;SDS011;34462;51.368;12.364;2023-05-10T09:12:04;4.95;;;4.53;;
15258;SDS011;34462;51.368;12.364;2023-05-10T09:14:37;6.57;;;4.95;;
15258;SDS011;34462;51.368;12.364;2023-05-10T09:17:06;5.93;;;4.30;;
15258;SDS011;34462;51.368;12.364;2023-05-10T09:19:35;5.18;;;4.68;;
15258;SDS011;34462;51.368;12.364;2023-05-10T09:22:03;5.72;;;4.95;;
15258;SDS011;34462;51.368;12.364;2023-05-10T09:24:31;5.63;;;4.68;;
15258;SDS011;34462;51.368;12.364;2023-05-10T09:26:59;5.55;;;5.05;;
15258;SDS011;34462;51.368;12.364;2023-05-10T09:29:39;6.28;;;5.55;;
15258;SDS011;34462;51.368;12.364;2023-05-10T09:32:09;5.78;;;4.90;;
15258;SDS011;34462;51.368;12.364;2023-05-10T09:34:39;6.70;;;5.55;;
15258;SDS011;34462;51.368;12.364;2023-05-10T09:37:08;5.78;;;5.28;;
15258;SDS011;34462;51.368;12.364;2023-05-10T09:39:37;6.30;;;5.30;;
15258;SDS011;34462;51.368;12.364;2023-05-10T09:42:08;6.22;;;5.63;;
15258;SDS011;34462;51.368;12.364;2023-05-10T09:44:37;6.30;;;5.70;;
15258;SDS011;34462;51.368;12.364;2023-05-10T09:47:09;6.75;;;5.85;;
15258;SDS011;34462;51.368;12.364;2023-05-10T09:49:37;7.18;;;5.90;;
15258;SDS011;34462;51.368;12.364;2023-05-10T09:52:07;7.10;;;6.40;;
15258;SDS011;34462;51.368;12.364;2023-05-10T09:54:37;7.70;;;6.72;;
15258;SDS011;34462;51.368;12.364;2023-05-10T09:57:20;6.60;;;6.00;;
15258;SDS011;34462;51.368;12.364;2023-05-10T09:59:50;7.15;;;6.32;;
15258;SDS011;34462;51.368;12.364;2023-05-10T10:02:20;7.35;;;6.65;;
15258;SDS011;34462;51.368;12.364;2023-05-10T10:04:55;6.53;;;5.93;;
15258;SDS011;34462;51.368;12.364;2023-05-10T10:07:23;7.22;;;6.30;;
15258;SDS011;34462;51.368;12.364;2023-05-10T10:09:52;7.10;;;6.40;;
15258;SDS011;34462;51.368;12.364;2023-05-10T10:12:21;7.63;;;6.93;;
15258;SDS011;34462;51.368;12.364;2023-05-10T10:14:50;7.25;;;6.57;;
15258;SDS011;34462;51.368;12.364;2023-05-10T10:17:18;7.85;;;6.90;;
15258;SDS011;34462;51.368;12.364;2023-05-10T10:19:48;8.10;;;6.70;;
15258;SDS011;34462;51.368;12.364;2023-05-10T10:22:17;6.47;;;5.88;;
15258;SDS011;34462;51.368;12.364;2023-05-10T10:24:45;8.55;;;6.50;;
15258;SDS011;34462;51.368;12.364;2023-05-10T10:27:15;8.90;;;6.18;;
15258;SDS011;34462;51.368;12.364;2023-05-10T10:29:56;7.28;;;5.80;;
15258;SDS011;34462;51.368;12.364;2023-05-10T10:32:37;6.18;;;5.57;;
15258;SDS011;34462;51.368;12.364;2023-05-10T10:35:38;7.80;;;6.03;;
15258;SDS011;34462;51.368;12.364;2023-05-10T10:38:07;7.05;;;6.35;;
15258;SDS011;34462;51.368;12.364;2023-05-10T10:40:35;8.05;;;7.35;;
15258;SDS011;34462;51.368;12.364;2023-05-10T10:43:23;7.47;;;6.32;;
15258;SDS011;34462;51.368;12.364;2023-05-10T10:48:47;8.23;;;7.40;;
15258;SDS011;34462;51.368;12.364;2023-05-10T10:51:36;7.75;;;7.05;;
15258;SDS011;34462;51.368;12.364;2023-05-10T10:54:08;7.30;;;5.97;;
15258;SDS011;34462;51.368;12.364;2023-05-10T10:56:37;7.60;;;6.53;;
15258;SDS011;34462;51.368;12.364;2023-05-10T10:59:05;8.65;;;7.03;;
15258;SDS011;34462;51.368;12.364;2023-05-10T11:01:36;8.25;;;7.45;;
15258;SDS011;34462;51.368;12.364;2023-05-10T11:04:16;7.53;;;6.82;;
15258;SDS011;34462;51.368;12.364;2023-05-10T11:06:46;7.47;;;6.68;;
15258;SDS011;34462;51.368;12.364;2023-05-10T11:09:14;8.40;;;7.60;;
15258;SDS011;34462;51.368;12.364;2023-05-10T11:11:48;7.97;;;7.18;;
15258;SDS011;34462;51.368;12.364;2023-05-10T11:14:21;7.25;;;6.55;;
15258;SDS011;34462;51.368;12.364;2023-05-10T11:16:51;8.30;;;7.50;;
15258;SDS011;34462;51.368;12.364;2023-05-10T11:19:19;8.80;;;7.82;;
15258;SDS011;34462;51.368;12.364;2023-05-10T11:21:48;8.18;;;7.38;;
15258;SDS011;34462;51.368;12.364;2023-05-10T11:24:20;7.35;;;6.65;;
15258;SDS011;34462;51.368;12.364;2023-05-10T11:26:50;7.75;;;7.05;;
15258;SDS011;34462;51.368;12.364;2023-05-10T11:29:18;8.95;;;6.88;;
15258;SDS011;34462;51.368;12.364;2023-05-10T11:31:47;8.10;;;7.40;;
15258;SDS011;34462;51.368;12.364;2023-05-10T11:34:24;8.07;;;7.28;;
15258;SDS011;34462;51.368;12.364;2023-05-10T11:36:56;8.15;;;7.35;;
15258;SDS011;34462;51.368;12.364;2023-05-10T11:39:28;8.75;;;7.65;;
15258;SDS011;34462;51.368;12.364;2023-05-10T11:41:58;9.05;;;8.15;;
15258;SDS011;34462;51.368;12.364;2023-05-10T11:44:28;9.10;;;8.30;;
15258;SDS011;34462;51.368;12.364;2023-05-10T11:46:58;8.73;;;7.82;;
15258;SDS011;34462;51.368;12.364;2023-05-10T11:49:28;8.80;;;7.95;;
15258;SDS011;34462;51.368;12.364;2023-05-10T11:52:03;9.93;;;8.10;;
15258;SDS011;34462;51.368;12.364;2023-05-10T11:54:32;8.07;;;7.30;;
15258;SDS011;34462;51.368;12.364;2023-05-10T11:57:01;9.30;;;8.35;;
15258;SDS011;34462;51.368;12.364;2023-05-10T11:59:30;7.93;;;7.22;;
15258;SDS011;34462;51.368;12.364;2023-05-10T12:01:58;8.80;;;8.00;;
15258;SDS011;34462;51.368;12.364;2023-05-10T12:04:26;8.82;;;7.53;;
15258;SDS011;34462;51.368;12.364;2023-05-10T12:06:56;8.80;;;7.97;;
15258;SDS011;34462;51.368;12.364;2023-05-10T12:09:25;10.20;;;9.20;;
15258;SDS011;34462;51.368;12.364;2023-05-10T12:11:56;8.82;;;7.97;;
15258;SDS011;34462;51.368;12.364;2023-05-10T12:14:24;8.23;;;7.43;;
15258;SDS011;34462;51.368;12.364;2023-05-10T12:16:52;9.48;;;8.48;;
15258;SDS011;34462;51.368;12.364;2023-05-10T12:19:20;9.20;;;8.40;;
15258;SDS011;34462;51.368;12.364;2023-05-10T12:21:50;8.65;;;7.85;;
15258;SDS011;34462;51.368;12.364;2023-05-10T12:24:18;8.80;;;7.90;;
15258;SDS011;34462;51.368;12.364;2023-05-10T12:26:47;9.02;;;7.70;;
15258;SDS011;34462;51.368;12.364;2023-05-10T12:29:16;9.27;;;8.48;;
15258;SDS011;34462;51.368;12.364;2023-05-10T12:31:52;10.60;;;7.95;;
15258;SDS011;34462;51.368;12.364;2023-05-10T12:34:23;11.38;;;10.27;;
15258;SDS011;34462;51.368;12.364;2023-05-10T12:36:54;9.20;;;8.23;;
15258;SDS011;34462;51.368;12.364;2023-05-10T12:39:23;9.40;;;8.40;;
15258;SDS011;34462;51.368;12.364;2023-05-10T12:41:51;8.70;;;7.90;;
15258;SDS011;34462;51.368;12.364;2023-05-10T12:44:20;9.43;;;8.43;;
15258;SDS011;34462;51.368;12.364;2023-05-10T12:46:48;7.85;;;7.18;;
15258;SDS011;34462;51.368;12.364;2023-05-10T12:49:16;9.10;;;7.43;;
15258;SDS011;34462;51.368;12.364;2023-05-10T12:51:45;7.50;;;6.70;;
15258;SDS011;34462;51.368;12.364;2023-05-10T12:54:15;8.23;;;7.22;;
15258;SDS011;34462;51.368;12.364;2023-05-10T12:56:43;7.70;;;7.07;;
15258;SDS011;34462;51.368;12.364;2023-05-10T12:59:11;8.30;;;7.50;;
15258;SDS011;34462;51.368;12.364;2023-05-10T13:01:39;8.27;;;7.47;;
15258;SDS011;34462;51.368;12.364;2023-05-10T13:04:07;8.02;;;7.32;;
15258;SDS011;34462;51.368;12.364;2023-05-10T13:06:36;7.00;;;6.40;;
15258;SDS011;34462;51.368;12.364;2023-05-10T13:09:04;7.30;;;6.68;;
15258;SDS011;34462;51.368;12.364;2023-05-10T13:11:33;7.53;;;6.72;;
15258;SDS011;34462;51.368;12.364;2023-05-10T13:14:02;8.30;;;7.53;;
15258;SDS011;34462;51.368;12.364;2023-05-10T13:16:30;7.68;;;6.75;;
15258;SDS011;34462;51.368;12.364;2023-05-10T13:18:59;7.40;;;6.70;;
15258;SDS011;34462;51.368;12.364;2023-05-10T13:21:27;8.18;;;7.40;;
15258;SDS011;34462;51.368;12.364;2023-05-10T13:23:55;7.40;;;6.68;;
15258;SDS011;34462;51.368;12.364;2023-05-10T13:26:24;7.22;;;6.63;;
15258;SDS011;34462;51.368;12.364;2023-05-10T13:28:53;7.50;;;6.80;;
15258;SDS011;34462;51.368;12.364;2023-05-10T13:31:22;7.95;;;6.80;;
15258;SDS011;34462;51.368;12.364;2023-05-10T13:33:50;7.60;;;6.90;;
15258;SDS011;34462;51.368;12.364;2023-05-10T13:36:19;6.30;;;5.80;;
15258;SDS011;34462;51.368;12.364;2023-05-10T13:38:47;7.78;;;7.05;;
15258;SDS011;34462;51.368;12.364;2023-05-10T13:41:15;6.97;;;6.38;;
15258;SDS011;34462;51.368;12.364;2023-05-10T13:43:43;7.03;;;6.43;;
15258;SDS011;34462;51.368;12.364;2023-05-10T13:46:13;6.65;;;6.15;;
15258;SDS011;34462;51.368;12.364;2023-05-10T13:48:41;5.60;;;5.10;;
15258;SDS011;34462;51.368;12.364;2023-05-10T13:51:09;7.30;;;6.70;;
15258;SDS011;34462;51.368;12.364;2023-05-10T13:53:38;6.25;;;5.75;;
15258;SDS011;34462;51.368;12.364;2023-05-10T13:56:07;5.78;;;5.28;;
15258;SDS011;34462;51.368;12.364;2023-05-10T13:58:35;6.38;;;5.55;;
15258;SDS011;34462;51.368;12.364;2023-05-10T14:01:03;5.90;;;5.35;;
15258;SDS011;34462;51.368;12.364;2023-05-10T14:03:33;4.65;;;4.25;;
15258;SDS011;34462;51.368;12.364;2023-05-10T14:06:01;5.95;;;5.45;;
15258;SDS011;34462;51.368;12.364;2023-05-10T14:08:30;5.80;;;5.25;;
15258;SDS011;34462;51.368;12.364;2023-05-10T14:10:58;5.78;;;5.28;;
15258;SDS011;34462;51.368;12.364;2023-05-10T14:13:26;6.40;;;5.90;;
15258;SDS011;34462;51.368;12.364;2023-05-10T14:15:54;6.00;;;5.40;;
15258;SDS011;34462;51.368;12.364;2023-05-10T14:18:23;6.00;;;5.50;;
15258;SDS011;34462;51.368;12.364;2023-05-10T14:20:53;5.22;;;4.38;;
15258;SDS011;34462;51.368;12.364;2023-05-10T14:23:21;3.30;;;3.00;;
15258;SDS011;34462;51.368;12.364;2023-05-10T14:25:52;2.10;;;2.00;;
15258;SDS011;34462;51.368;12.364;2023-05-10T14:28:20;1.77;;;1.60;;
15258;SDS011;34462;51.368;12.364;2023-05-10T14:30:49;1.83;;;1.67;;
15258;SDS011;34462;51.368;12.364;2023-05-10T14:33:18;2.00;;;1.90;;
15258;SDS011;34462;51.368;12.364;2023-05-10T14:35:47;1.70;;;1.60;;
15258;SDS011;34462;51.368;12.364;2023-05-10T14:38:16;2.22;;;1.80;;
15258;SDS011;34462;51.368;12.364;2023-05-10T14:40:45;2.00;;;1.90;;
15258;SDS011;34462;51.368;12.364;2023-05-10T14:43:13;2.22;;;2.03;;
15258;SDS011;34462;51.368;12.364;2023-05-10T14:45:41;2.95;;;2.35;;
15258;SDS011;34462;51.368;12.364;2023-05-10T14:48:09;2.60;;;2.40;;
15258;SDS011;34462;51.368;12.364;2023-05-10T14:50:41;2.78;;;2.55;;
15258;SDS011;34462;51.368;12.364;2023-05-10T14:53:09;4.13;;;2.50;;
15258;SDS011;34462;51.368;12.364;2023-05-10T14:55:39;2.95;;;2.75;;
15258;SDS011;34462;51.368;12.364;2023-05-10T14:58:07;3.28;;;3.08;;
15258;SDS011;34462;51.368;12.364;2023-05-10T15:00:35;3.45;;;3.15;;